createdAt,value
2023-11-12T00:00:36.535Z,7.83
2023-11-12T00:03:24.761Z,8.26
2023-11-12T00:06:13.498Z,8.26
2023-11-12T00:09:05.554Z,8.62
2023-11-12T00:11:53.623Z,8.32
2023-11-12T00:14:46.670Z,8.49
2023-11-12T00:17:34.975Z,8.78
2023-11-12T00:20:26.374Z,8.86
2023-11-12T00:23:15.126Z,8.77
2023-11-12T00:26:05.056Z,8.83
2023-11-12T00:28:53.433Z,8.82
2023-11-12T00:31:41.590Z,8.85
2023-11-12T00:34:29.701Z,8.51
2023-11-12T00:37:17.500Z,8.86
2023-11-12T00:40:05.816Z,8.79
2023-11-12T00:42:55.329Z,8.85
2023-11-12T00:45:43.334Z,8.72
2023-11-12T00:48:31.426Z,8.69
2023-11-12T00:51:19.637Z,8.84
2023-11-12T00:54:07.639Z,8.56
2023-11-12T00:56:55.550Z,8.63
2023-11-12T00:59:44.831Z,8.68
2023-11-12T01:02:33.244Z,8.59
2023-11-12T01:05:22.054Z,8.49
2023-11-12T01:08:09.946Z,8.67
2023-11-12T01:10:58.986Z,8.75
2023-11-12T01:13:47.380Z,8.63
2023-11-12T01:16:39.003Z,8.36
2023-11-12T01:19:27.263Z,8.54
2023-11-12T01:22:15.376Z,8.45
2023-11-12T01:25:03.868Z,8.36
2023-11-12T01:27:51.722Z,8.00
2023-11-12T01:30:41.747Z,8.03
2023-11-12T01:33:31.400Z,7.97
2023-11-12T01:36:19.289Z,7.82
2023-11-12T01:39:09.300Z,8.05
2023-11-12T01:41:57.307Z,7.93
2023-11-12T01:44:45.489Z,7.88
2023-11-12T01:47:33.511Z,7.87
2023-11-12T01:50:23.590Z,7.87
2023-11-12T01:53:15.679Z,7.75
2023-11-12T01:56:05.506Z,7.73
2023-11-12T01:58:56.764Z,7.74
2023-11-12T02:01:45.161Z,7.76
2023-11-12T02:04:33.173Z,7.78
2023-11-12T02:07:26.275Z,7.71
2023-11-12T02:10:16.283Z,7.69
2023-11-12T02:13:05.861Z,7.46
2023-11-12T02:15:55.723Z,7.64
2023-11-12T02:18:48.087Z,7.65
2023-11-12T02:21:36.036Z,7.82
2023-11-12T02:24:26.069Z,7.57
2023-11-12T02:27:14.021Z,7.42
2023-11-12T02:30:02.261Z,7.48
2023-11-12T02:32:50.184Z,7.35
2023-11-12T02:35:44.093Z,7.27
2023-11-12T02:38:32.566Z,7.48
2023-11-12T02:41:24.174Z,7.39
2023-11-12T02:44:13.232Z,7.47
2023-11-12T02:47:01.069Z,7.52
2023-11-12T02:50:06.941Z,7.61
2023-11-12T02:52:54.873Z,7.52
2023-11-12T02:55:43.715Z,7.92
2023-11-12T02:58:34.000Z,7.69
2023-11-12T03:01:22.209Z,7.52
2023-11-12T03:04:11.234Z,7.48
2023-11-12T03:06:59.332Z,7.58
2023-11-12T03:09:47.361Z,7.91
2023-11-12T03:12:35.434Z,7.94
2023-11-12T03:15:26.887Z,7.77
2023-11-12T03:18:15.007Z,7.49
2023-11-12T03:21:06.101Z,7.91
2023-11-12T03:23:54.238Z,7.73
2023-11-12T03:26:42.226Z,7.65
2023-11-12T03:29:30.214Z,7.80
2023-11-12T03:32:22.652Z,7.76
2023-11-12T03:35:11.029Z,7.80
2023-11-12T03:37:58.908Z,7.97
2023-11-12T03:40:47.017Z,8.18
2023-11-12T03:43:34.853Z,7.98
2023-11-12T03:46:23.263Z,7.85
2023-11-12T03:49:13.023Z,8.18
2023-11-12T03:52:00.861Z,7.85
2023-11-12T03:54:49.004Z,7.82
2023-11-12T03:57:36.922Z,7.96
2023-11-12T04:00:25.542Z,7.72
2023-11-12T04:03:13.640Z,8.05
2023-11-12T04:06:03.086Z,7.72
2023-11-12T04:08:51.217Z,7.75
2023-11-12T04:11:41.508Z,7.61
2023-11-12T04:14:29.687Z,7.52
2023-11-12T04:17:19.205Z,7.15
2023-11-12T04:20:09.776Z,7.99
2023-11-12T04:22:59.185Z,8.44
2023-11-12T04:25:49.264Z,7.98
2023-11-12T04:28:37.147Z,7.41
2023-11-12T04:31:25.240Z,7.36
2023-11-12T04:34:13.130Z,7.49
2023-11-12T04:37:01.800Z,8.23
2023-11-12T04:39:51.571Z,7.61
2023-11-12T04:42:40.372Z,7.52
2023-11-12T04:45:28.291Z,8.15
2023-11-12T04:48:16.412Z,7.52
2023-11-12T04:51:04.381Z,7.82
2023-11-12T04:53:52.836Z,7.78
2023-11-12T04:56:47.968Z,8.10
2023-11-12T04:59:36.798Z,8.26
2023-11-12T05:02:24.851Z,8.05
2023-11-12T05:05:13.278Z,7.74
2023-11-12T05:08:03.056Z,7.55
2023-11-12T05:10:51.155Z,7.12
2023-11-12T05:13:40.531Z,7.40
2023-11-12T05:16:28.565Z,7.17
2023-11-12T05:19:16.768Z,7.73
2023-11-12T05:22:05.123Z,7.84
2023-11-12T05:24:53.152Z,8.35
2023-11-12T05:27:41.319Z,7.73
2023-11-12T05:30:30.845Z,7.49
2023-11-12T05:33:19.062Z,7.81
2023-11-12T05:36:07.815Z,7.40
2023-11-12T05:38:55.804Z,7.43
2023-11-12T05:41:43.742Z,7.36
2023-11-12T05:44:31.945Z,7.63
2023-11-12T05:47:22.381Z,7.98
2023-11-12T05:50:13.816Z,8.22
2023-11-12T05:53:01.574Z,7.57
2023-11-12T05:55:49.437Z,7.74
2023-11-12T05:58:37.278Z,7.32
2023-11-12T06:01:25.256Z,7.39
2023-11-12T06:04:14.752Z,7.58
2023-11-12T06:07:02.851Z,7.79
2023-11-12T06:09:50.858Z,8.14
2023-11-12T06:12:38.716Z,7.90
2023-11-12T06:15:28.474Z,7.89
2023-11-12T06:18:16.752Z,8.27
2023-11-12T06:21:06.513Z,8.02
2023-11-12T06:23:54.954Z,8.28
2023-11-12T06:26:43.773Z,7.81
2023-11-12T06:29:31.805Z,7.65
2023-11-12T06:32:19.658Z,7.80
2023-11-12T06:35:08.616Z,8.31
2023-11-12T06:37:58.078Z,8.13
2023-11-12T06:40:46.026Z,7.84
2023-11-12T06:43:34.077Z,8.00
2023-11-12T06:46:23.216Z,8.21
2023-11-12T06:49:11.902Z,8.00
2023-11-12T06:52:00.455Z,7.97
2023-11-12T06:54:50.193Z,8.05
2023-11-12T06:57:38.334Z,8.12
2023-11-12T07:00:26.294Z,7.76
2023-11-12T07:03:14.623Z,8.50
2023-11-12T07:06:04.825Z,8.56
2023-11-12T07:08:52.574Z,8.78
2023-11-12T07:11:42.185Z,8.84
2023-11-12T07:14:30.663Z,8.89
2023-11-12T07:17:19.369Z,8.95
2023-11-12T07:20:10.483Z,9.28
2023-11-12T07:22:58.302Z,9.22
2023-11-12T07:25:46.151Z,9.20
2023-11-12T07:28:35.570Z,9.42
2023-11-12T07:31:25.506Z,9.43
2023-11-12T07:34:13.669Z,9.51
2023-11-12T07:37:07.196Z,9.77
2023-11-12T07:39:55.272Z,9.84
2023-11-12T07:42:43.372Z,9.94
2023-11-12T07:45:38.275Z,10.02
2023-11-12T07:48:29.252Z,10.17
2023-11-12T07:51:17.185Z,10.40
2023-11-12T07:54:05.732Z,10.46
2023-11-12T07:56:53.618Z,10.75
2023-11-12T07:59:41.470Z,11.05
2023-11-12T08:02:30.742Z,11.06
2023-11-12T08:05:20.284Z,11.31
2023-11-12T08:08:09.219Z,11.45
2023-11-12T08:10:57.623Z,11.45
2023-11-12T08:13:45.759Z,11.60
2023-11-12T08:16:33.580Z,11.75
2023-11-12T08:19:23.462Z,11.88
2023-11-12T08:22:11.352Z,11.80
2023-11-12T08:24:59.273Z,11.70
2023-11-12T08:27:47.999Z,11.55
2023-11-12T08:30:35.966Z,11.40
2023-11-12T08:33:24.052Z,11.41
2023-11-12T08:36:13.918Z,11.57
2023-11-12T08:39:05.134Z,11.63
2023-11-12T08:41:53.859Z,11.97
2023-11-12T08:44:41.851Z,11.98
2023-11-12T08:47:30.019Z,12.07
2023-11-12T08:50:18.010Z,12.41
2023-11-12T08:53:08.708Z,12.40
2023-11-12T08:55:56.812Z,12.33
2023-11-12T08:58:44.866Z,12.63
2023-11-12T09:01:36.270Z,12.73
2023-11-12T09:04:24.832Z,12.81
2023-11-12T09:07:12.756Z,12.80
2023-11-12T09:10:01.959Z,12.86
2023-11-12T09:12:49.997Z,12.91
2023-11-12T09:15:38.092Z,12.84
2023-11-12T09:18:28.708Z,12.85
2023-11-12T09:21:16.953Z,12.76
2023-11-12T09:24:05.600Z,12.98
2023-11-12T09:26:54.810Z,13.00
2023-11-12T09:29:42.670Z,13.07
2023-11-12T09:32:30.784Z,13.11
2023-11-12T09:35:19.933Z,13.18
2023-11-12T09:38:07.925Z,13.19
2023-11-12T09:41:00.729Z,13.38
2023-11-12T09:43:52.005Z,13.03
2023-11-12T09:46:41.337Z,13.42
2023-11-12T09:49:31.461Z,13.10
2023-11-12T09:52:19.394Z,13.60
2023-11-12T09:55:09.456Z,13.62
2023-11-12T09:57:58.305Z,13.83
2023-11-12T10:00:47.750Z,13.98
2023-11-12T10:03:36.089Z,13.98
2023-11-12T10:06:24.535Z,14.09
2023-11-12T10:09:12.665Z,14.24
2023-11-12T10:12:05.215Z,14.44
2023-11-12T10:15:03.374Z,14.36
2023-11-12T10:17:53.448Z,14.34
2023-11-12T10:20:43.619Z,14.53
2023-11-12T10:23:33.780Z,14.53
2023-11-12T10:26:21.887Z,14.61
2023-11-12T10:29:20.813Z,14.78
2023-11-12T10:32:09.032Z,14.70
2023-11-12T10:34:58.517Z,14.62
2023-11-12T10:37:57.275Z,14.61
2023-11-12T10:41:01.955Z,14.66
2023-11-12T10:44:00.170Z,14.82
2023-11-12T10:46:54.332Z,14.78
2023-11-12T10:49:44.103Z,14.57
2023-11-12T10:52:34.350Z,15.06
2023-11-12T10:55:24.500Z,15.06
2023-11-12T10:58:13.532Z,15.19
2023-11-12T11:01:03.518Z,15.25
2023-11-12T11:03:53.440Z,15.19
2023-11-12T11:06:43.598Z,15.02
2023-11-12T11:09:33.395Z,14.87
2023-11-12T11:12:23.540Z,15.09
2023-11-12T11:15:43.362Z,15.05
2023-11-12T11:18:53.935Z,15.01
2023-11-12T11:21:43.125Z,14.96
2023-11-12T11:24:46.658Z,15.28
2023-11-12T11:27:34.941Z,15.19
2023-11-12T11:30:24.825Z,15.13
2023-11-12T11:33:13.792Z,15.07
2023-11-12T11:36:10.234Z,15.03
2023-11-12T11:39:26.419Z,14.97
2023-11-12T11:42:17.380Z,15.01
2023-11-12T11:45:09.727Z,14.94
2023-11-12T11:48:06.381Z,14.62
2023-11-12T11:50:57.392Z,15.07
2023-11-12T11:53:46.911Z,15.11
2023-11-12T11:56:35.655Z,14.92
2023-11-12T11:59:26.095Z,15.10
2023-11-12T12:02:17.446Z,15.09
2023-11-12T12:05:06.384Z,15.19
2023-11-12T12:08:01.511Z,15.14
2023-11-12T12:10:49.548Z,15.01
2023-11-12T12:13:41.559Z,15.03
2023-11-12T12:16:32.772Z,14.71
2023-11-12T12:19:23.538Z,14.92
2023-11-12T12:22:12.124Z,14.85
2023-11-12T12:25:00.115Z,15.01
2023-11-12T12:27:57.398Z,15.01
2023-11-12T12:30:52.169Z,15.08
2023-11-12T12:33:41.488Z,15.37
2023-11-12T12:36:29.476Z,15.26
2023-11-12T12:39:20.052Z,15.14
2023-11-12T12:42:11.072Z,14.94
2023-11-12T12:44:59.925Z,15.03
2023-11-12T12:47:49.200Z,14.87
2023-11-12T12:50:38.623Z,14.74
2023-11-12T12:53:26.981Z,14.74
2023-11-12T12:56:15.651Z,14.68
2023-11-12T12:59:03.713Z,14.78
2023-11-12T13:01:51.669Z,14.79
2023-11-12T13:04:40.806Z,14.69
2023-11-12T13:07:30.301Z,14.73
2023-11-12T13:10:21.560Z,14.62
2023-11-12T13:13:09.638Z,14.55
2023-11-12T13:15:57.703Z,14.57
2023-11-12T13:18:48.666Z,14.48
2023-11-12T13:21:51.343Z,14.45
2023-11-12T13:24:45.889Z,14.34
2023-11-12T13:27:34.090Z,14.28
2023-11-12T13:30:22.160Z,14.26
2023-11-12T13:33:10.860Z,14.26
2023-11-12T13:36:02.791Z,14.26
2023-11-12T13:38:51.142Z,14.17
2023-11-12T13:41:40.418Z,14.11
2023-11-12T13:44:33.401Z,14.01
2023-11-12T13:47:22.413Z,14.08
2023-11-12T13:50:12.819Z,14.00
2023-11-12T13:53:02.223Z,13.91
2023-11-12T13:55:52.223Z,13.88
2023-11-12T13:58:44.615Z,13.85
2023-11-12T14:01:33.897Z,13.83
2023-11-12T14:04:22.371Z,13.60
2023-11-12T14:07:11.279Z,13.80
2023-11-12T14:09:59.458Z,13.75
2023-11-12T14:12:48.199Z,13.76
2023-11-12T14:15:37.391Z,13.74
2023-11-12T14:18:25.290Z,13.66
2023-11-12T14:21:13.819Z,13.62
2023-11-12T14:24:03.051Z,13.56
2023-11-12T14:26:51.239Z,13.49
2023-11-12T14:29:39.285Z,13.40
2023-11-12T14:32:28.607Z,13.31
2023-11-12T14:35:17.637Z,13.32
2023-11-12T14:38:06.543Z,13.31
2023-11-12T14:40:55.092Z,13.32
2023-11-12T14:43:42.931Z,13.16
2023-11-12T14:46:35.689Z,13.15
2023-11-12T14:49:27.315Z,13.15
2023-11-12T14:52:16.476Z,13.01
2023-11-12T14:55:08.496Z,13.14
2023-11-12T14:58:00.467Z,13.05
2023-11-12T15:00:48.755Z,13.09
2023-11-12T15:03:37.912Z,13.06
2023-11-12T15:06:28.529Z,13.07
2023-11-12T15:09:16.541Z,13.11
2023-11-12T15:12:04.662Z,13.09
2023-11-12T15:14:52.471Z,12.84
2023-11-12T15:17:41.351Z,13.08
2023-11-12T15:20:29.448Z,12.96
2023-11-12T15:23:19.722Z,12.62
2023-11-12T15:26:07.599Z,12.61
2023-11-12T15:28:56.610Z,12.50
2023-11-12T15:31:44.625Z,12.61
2023-11-12T15:34:32.432Z,12.47
2023-11-12T15:37:20.690Z,12.57
2023-11-12T15:40:19.454Z,12.62
2023-11-12T15:43:09.303Z,12.88
2023-11-12T15:45:58.645Z,13.01
2023-11-12T15:48:47.988Z,12.89
2023-11-12T15:51:36.095Z,12.31
2023-11-12T15:54:24.182Z,12.35
2023-11-12T15:57:14.924Z,12.52
2023-11-12T16:00:04.269Z,12.50
2023-11-12T16:02:55.035Z,12.30
2023-11-12T16:05:47.593Z,12.40
2023-11-12T16:08:36.948Z,12.34
2023-11-12T16:11:29.205Z,12.18
2023-11-12T16:14:19.842Z,12.11
2023-11-12T16:17:07.736Z,12.20
2023-11-12T16:19:57.591Z,12.02
2023-11-12T16:22:46.700Z,11.62
2023-11-12T16:25:34.719Z,11.94
2023-11-12T16:28:23.860Z,12.08
2023-11-12T16:31:13.540Z,12.20
2023-11-12T16:34:01.728Z,12.07
2023-11-12T16:36:49.792Z,11.98
2023-11-12T16:39:44.666Z,11.97
2023-11-12T16:42:32.844Z,12.04
2023-11-12T16:45:22.090Z,11.98
2023-11-12T16:48:11.573Z,12.02
2023-11-12T16:50:59.548Z,12.05
2023-11-12T16:53:47.410Z,12.16
2023-11-12T16:56:36.722Z,12.01
2023-11-12T16:59:24.619Z,11.95
2023-11-12T17:02:15.387Z,11.96
2023-11-12T17:05:06.077Z,12.03
2023-11-12T17:07:54.014Z,11.74
2023-11-12T17:10:42.269Z,11.84
2023-11-12T17:13:34.156Z,11.77
2023-11-12T17:16:23.471Z,11.84
2023-11-12T17:19:12.331Z,11.80
2023-11-12T17:22:02.339Z,11.83
2023-11-12T17:24:51.099Z,11.80
2023-11-12T17:27:39.219Z,11.56
2023-11-12T17:30:27.710Z,11.65
2023-11-12T17:33:15.776Z,11.76
2023-11-12T17:36:04.352Z,11.68
2023-11-12T17:38:53.805Z,11.71
2023-11-12T17:41:41.974Z,11.77
2023-11-12T17:44:30.410Z,11.64
2023-11-12T17:47:18.699Z,11.54
2023-11-12T17:50:08.145Z,11.13
2023-11-12T17:52:56.154Z,11.42
2023-11-12T17:55:46.810Z,11.47
2023-11-12T17:58:35.045Z,11.37
2023-11-12T18:01:24.621Z,11.51
2023-11-12T18:04:13.383Z,11.50
2023-11-12T18:07:02.150Z,11.43
2023-11-12T18:09:50.274Z,11.55
2023-11-12T18:12:40.381Z,11.80
2023-11-12T18:15:29.943Z,11.54
2023-11-12T18:18:18.890Z,11.41
2023-11-12T18:21:07.320Z,11.54
2023-11-12T18:23:55.665Z,11.49
2023-11-12T18:26:48.347Z,11.48
2023-11-12T18:29:37.897Z,11.56
2023-11-12T18:32:26.279Z,11.46
2023-11-12T18:35:15.180Z,11.41
2023-11-12T18:38:05.210Z,11.45
2023-11-12T18:40:53.570Z,11.42
2023-11-12T18:43:42.025Z,11.51
2023-11-12T18:46:31.888Z,11.35
2023-11-12T18:49:20.392Z,11.44
2023-11-12T18:52:09.020Z,11.79
2023-11-12T18:54:58.987Z,11.63
2023-11-12T18:57:47.973Z,11.38
2023-11-12T19:00:37.615Z,11.33
2023-11-12T19:03:30.828Z,11.54
2023-11-12T19:06:19.250Z,11.49
2023-11-12T19:09:09.103Z,11.31
2023-11-12T19:11:57.237Z,11.09
2023-11-12T19:14:45.752Z,11.45
2023-11-12T19:17:34.137Z,11.41
2023-11-12T19:20:26.390Z,11.11
2023-11-12T19:23:14.781Z,11.23
2023-11-12T19:26:03.068Z,11.26
2023-11-12T19:28:51.809Z,11.20
2023-11-12T19:31:40.212Z,11.30
2023-11-12T19:34:29.379Z,11.40
2023-11-12T19:37:21.205Z,11.46
2023-11-12T19:40:10.535Z,11.62
2023-11-12T19:42:58.967Z,11.69
2023-11-12T19:45:49.275Z,11.43
2023-11-12T19:48:37.843Z,11.46
2023-11-12T19:51:25.882Z,11.47
2023-11-12T19:54:19.760Z,11.44
2023-11-12T19:57:08.244Z,11.27
2023-11-12T19:59:57.225Z,11.17
2023-11-12T20:02:45.400Z,11.40
2023-11-12T20:05:39.036Z,11.41
2023-11-12T20:08:27.308Z,11.32
2023-11-12T20:11:18.632Z,11.35
2023-11-12T20:14:08.166Z,11.29
2023-11-12T20:16:59.254Z,11.35
2023-11-12T20:19:47.700Z,11.30
2023-11-12T20:22:35.573Z,11.29
2023-11-12T20:25:26.269Z,11.19
2023-11-12T20:28:15.946Z,11.25
2023-11-12T20:31:04.584Z,11.30
2023-11-12T20:33:54.410Z,11.17
2023-11-12T20:36:42.652Z,10.98
2023-11-12T20:39:31.160Z,11.23
2023-11-12T20:42:20.335Z,10.85
2023-11-12T20:45:13.451Z,11.11
2023-11-12T20:48:01.800Z,10.98
2023-11-12T20:50:49.938Z,11.02
2023-11-12T20:53:38.076Z,10.97
2023-11-12T20:56:26.198Z,10.91
2023-11-12T20:59:14.760Z,10.91
2023-11-12T21:02:14.122Z,10.91
2023-11-12T21:05:10.765Z,10.91
2023-11-12T21:07:59.673Z,10.94
2023-11-12T21:10:47.727Z,10.90
2023-11-12T21:13:36.246Z,10.95
2023-11-12T21:16:24.355Z,10.93
2023-11-12T21:19:13.767Z,10.96
2023-11-12T21:22:02.239Z,11.03
2023-11-12T21:24:50.433Z,11.12
2023-11-12T21:27:39.268Z,11.13
2023-11-12T21:30:27.513Z,11.09
2023-11-12T21:33:17.016Z,11.32
2023-11-12T21:36:07.640Z,11.23
2023-11-12T21:38:57.058Z,11.22
2023-11-12T21:41:45.270Z,11.18
2023-11-12T21:44:33.464Z,11.16
2023-11-12T21:47:24.435Z,11.15
2023-11-12T21:50:16.536Z,11.12
2023-11-12T21:53:06.170Z,11.12
2023-11-12T21:55:58.852Z,11.05
2023-11-12T21:58:46.805Z,11.08
2023-11-12T22:01:34.601Z,11.05
2023-11-12T22:04:26.190Z,11.10
2023-11-12T22:07:15.023Z,11.09
2023-11-12T22:10:05.980Z,11.13
2023-11-12T22:12:55.296Z,11.12
2023-11-12T22:15:43.162Z,11.04
2023-11-12T22:18:31.219Z,11.05
2023-11-12T22:21:19.094Z,11.08
2023-11-12T22:24:08.543Z,11.11
2023-11-12T22:27:01.261Z,10.96
2023-11-12T22:29:49.078Z,11.06
2023-11-12T22:32:37.851Z,10.90
2023-11-12T22:35:26.192Z,10.95
2023-11-12T22:38:14.064Z,10.74
2023-11-12T22:41:01.870Z,10.91
2023-11-12T22:43:50.985Z,10.86
2023-11-12T22:46:38.934Z,11.01
2023-11-12T22:49:26.711Z,10.90
2023-11-12T22:52:15.246Z,10.83
2023-11-12T22:55:04.333Z,10.72
2023-11-12T22:57:52.725Z,10.78
2023-11-12T23:00:50.191Z,10.65
2023-11-12T23:03:39.020Z,10.51
2023-11-12T23:06:28.148Z,10.36
2023-11-12T23:09:19.258Z,10.46
2023-11-12T23:12:09.871Z,10.37
2023-11-12T23:14:57.956Z,10.25
2023-11-12T23:17:47.250Z,10.16
2023-11-12T23:20:35.992Z,10.18
2023-11-12T23:23:24.674Z,9.99
2023-11-12T23:26:12.641Z,10.01
2023-11-12T23:29:00.785Z,10.08
2023-11-12T23:31:48.944Z,10.04
2023-11-12T23:34:38.567Z,9.95
2023-11-12T23:37:26.367Z,9.82
2023-11-12T23:40:15.836Z,10.01
2023-11-12T23:43:03.724Z,9.93
2023-11-12T23:45:51.628Z,9.96
2023-11-12T23:48:39.793Z,9.90
2023-11-12T23:51:29.215Z,9.91
2023-11-12T23:54:17.594Z,9.82
2023-11-12T23:57:06.214Z,9.87
2023-11-12T23:59:54.095Z,9.82
